Time;durP1;ratioP1;P1;durP2;ratioP2;P2;SDS_P1;SDS_P2;PMS_P1;PMS_P2;Temp;Humidity;BMP_temperature;BMP_pressure;BME280_temperature;BME280_humidity;BME280_pressure;Samples;Min_cycle;Max_cycle;Signal;HPM_P1;HPM_P2
2023/10/12 00:02:57;;;;;;;3.67;2.60;;;;;;;-0.71;71.38;97272.84;6295274;28;20048;-67
2023/10/12 00:05:59;;;;;;;3.92;2.60;;;;;;;-0.66;70.93;97277.97;6296088;28;20043;-67
2023/10/12 00:09:16;;;;;;;5.13;2.65;;;;;;;-0.74;71.60;97280.63;6295272;28;20515;-68
2023/10/12 00:12:24;;;;;;;3.30;2.60;;;;;;;-0.77;71.36;97285.84;6278464;28;20052;-68
2023/10/12 00:15:37;;;;;;;4.75;2.60;;;;;;;-0.83;71.95;97291.97;6277356;28;20041;-67
2023/10/12 00:18:38;;;;;;;5.20;3.10;;;;;;;-1.00;71.72;97268.06;6295768;28;20044;-66
2023/10/12 00:21:43;;;;;;;3.97;3.10;;;;;;;-0.81;71.71;97294.53;6295628;28;20037;-67
2023/10/12 00:24:46;;;;;;;8.02;3.85;;;;;;;-0.83;72.11;97294.53;6277883;28;20048;-67
2023/10/12 00:27:53;;;;;;;7.85;3.70;;;;;;;-0.75;71.44;97289.28;6277799;28;20048;-67
2023/10/12 00:31:05;;;;;;;8.35;4.43;;;;;;;-0.76;71.44;97297.91;6295529;28;20423;-66
2023/10/12 00:34:10;;;;;;;7.40;4.60;;;;;;;-0.72;71.11;97294.41;6276914;28;20036;-67
2023/10/12 00:37:14;;;;;;;9.07;4.53;;;;;;;-0.94;71.82;97305.00;6295562;28;20060;-67
2023/10/12 00:40:26;;;;;;;6.85;4.30;;;;;;;-0.99;71.48;97306.81;6294660;28;20048;-67
2023/10/12 00:43:36;;;;;;;6.45;4.18;;;;;;;-1.14;72.58;97296.66;6294544;28;20055;-66
2023/10/12 00:50:05;;;;;;;4.57;2.83;;;;;;;-1.20;72.86;97296.72;6293921;28;20426;-68
2023/10/12 00:53:15;;;;;;;4.53;2.95;;;;;;;-1.12;72.65;97302.66;6294741;28;20432;-66
2023/10/12 00:56:19;;;;;;;3.80;3.40;;;;;;;-1.03;71.96;97307.72;6294806;28;20503;-67
2023/10/12 00:59:27;;;;;;;5.50;3.92;;;;;;;-1.03;71.81;97293.94;6294080;28;20041;-68
2023/10/12 01:02:39;;;;;;;4.85;3.13;;;;;;;-0.95;71.61;97303.31;6294298;28;20052;-67
2023/10/12 01:05:42;;;;;;;4.63;3.40;;;;;;;-0.93;72.02;97311.91;6294005;28;20412;-67
2023/10/12 01:08:43;;;;;;;3.60;3.10;;;;;;;-1.05;71.80;97316.34;6294182;28;20057;-66
2023/10/12 01:12:00;;;;;;;5.27;3.50;;;;;;;-1.16;72.33;97319.91;6293861;28;20103;-68
2023/10/12 01:15:11;;;;;;;4.28;3.17;;;;;;;-1.13;72.39;97329.38;6294463;28;20430;-67
2023/10/12 01:18:16;;;;;;;5.28;3.58;;;;;;;-1.00;72.60;97330.06;6293793;28;20056;-67
2023/10/12 01:21:20;;;;;;;3.83;3.03;;;;;;;-0.94;72.30;97336.00;6293442;28;20515;-65
2023/10/12 01:24:30;;;;;;;4.30;3.17;;;;;;;-0.92;72.27;97339.44;6276962;28;20040;-68
2023/10/12 01:27:34;;;;;;;4.18;3.25;;;;;;;-0.78;71.53;97341.00;6294415;28;20048;-67
2023/10/12 01:30:39;;;;;;;2.63;2.40;;;;;;;-0.74;71.47;97340.91;6293696;28;20048;-67
2023/10/12 01:33:41;;;;;;;4.90;3.53;;;;;;;-0.62;72.01;97347.69;6293445;28;20059;-67
2023/10/12 01:36:43;;;;;;;4.05;3.22;;;;;;;-0.52;71.44;97349.25;6275751;28;20423;-67
2023/10/12 01:39:54;;;;;;;4.25;2.88;;;;;;;-0.39;70.86;97346.53;6293390;28;20076;-67
2023/10/12 01:43:01;;;;;;;3.35;2.72;;;;;;;-0.60;71.19;97345.06;6292642;28;20440;-67
2023/10/12 01:46:07;;;;;;;4.25;3.15;;;;;;;-0.71;71.96;97358.13;6293441;28;20056;-67
2023/10/12 01:49:14;;;;;;;5.55;3.25;;;;;;;-0.73;71.52;97354.72;6293712;28;20531;-66
2023/10/12 01:52:17;;;;;;;4.65;3.30;;;;;;;-0.90;72.18;97347.19;6292917;28;20056;-67
2023/10/12 01:55:31;;;;;;;3.88;3.17;;;;;;;-0.87;72.95;97352.31;6293693;28;20523;-67
2023/10/12 01:58:35;;;;;;;3.95;2.85;;;;;;;-0.88;72.22;97349.72;6293168;28;20051;-68
2023/10/12 02:01:46;;;;;;;5.50;3.80;;;;;;;-0.92;72.31;97365.25;6293910;28;20044;-66
2023/10/12 02:04:54;;;;;;;4.60;3.85;;;;;;;-0.94;72.76;97372.16;6293383;28;20048;-68
2023/10/12 02:07:59;;;;;;;3.80;3.00;;;;;;;-0.71;72.03;97368.47;6275070;28;20053;-67
2023/10/12 02:14:34;;;;;;;5.90;3.72;;;;;;;-1.05;72.69;97368.00;6238413;28;20076;-66
2023/10/12 02:17:37;;;;;;;5.55;3.13;;;;;;;-1.10;72.42;97360.31;6259137;28;20052;-67
2023/10/12 02:20:47;;;;;;;3.28;2.60;;;;;;;-0.90;71.25;97362.69;6292894;28;20041;-67
2023/10/12 02:27:00;;;;;;;4.65;3.25;;;;;;;-0.85;71.65;97365.19;6292673;28;20047;-67
2023/10/12 02:30:06;;;;;;;4.93;3.45;;;;;;;-0.95;71.47;97354.97;6293040;28;20539;-68
2023/10/12 02:33:08;;;;;;;4.78;3.42;;;;;;;-0.79;71.30;97370.28;6292961;28;20130;-67
2023/10/12 02:36:09;;;;;;;5.50;3.70;;;;;;;-0.79;71.63;97362.53;6292428;28;20045;-67
2023/10/12 02:39:15;;;;;;;5.15;3.78;;;;;;;-0.81;71.47;97369.47;6293332;28;20044;-66
2023/10/12 02:42:22;;;;;;;4.03;3.08;;;;;;;-0.88;72.28;97375.56;6293307;28;20040;-67
2023/10/12 02:45:29;;;;;;;5.32;3.65;;;;;;;-0.79;72.33;97383.19;6292806;28;20053;-67
2023/10/12 02:48:36;;;;;;;4.72;3.10;;;;;;;-0.75;72.60;97377.97;6292960;28;20048;-67
2023/10/12 02:51:44;;;;;;;3.80;3.25;;;;;;;-0.47;71.18;97394.00;6292778;28;20419;-66
2023/10/12 02:54:52;;;;;;;4.57;3.33;;;;;;;-0.50;70.88;97378.53;6292926;28;20701;-67
2023/10/12 02:57:56;;;;;;;4.80;2.78;;;;;;;-0.56;71.48;97394.13;6297602;28;20107;-67
2023/10/12 03:01:13;;;;;;;5.05;3.33;;;;;;;-0.42;71.04;97401.72;6296319;28;20063;-67
2023/10/12 03:04:17;;;;;;;5.13;3.83;;;;;;;-0.57;70.86;97392.41;6279873;28;20044;-67
2023/10/12 03:07:24;;;;;;;5.75;3.38;;;;;;;-0.41;70.90;97400.81;6296353;28;20053;-67
2023/10/12 03:10:28;;;;;;;4.95;2.63;;;;;;;-0.37;70.58;97396.47;6296317;28;20526;-66
2023/10/12 03:13:35;;;;;;;4.97;4.03;;;;;;;-0.34;70.69;97399.00;6297332;28;20415;-67
2023/10/12 03:16:41;;;;;;;4.05;3.65;;;;;;;-0.32;70.59;97402.44;6297126;28;20036;-67
2023/10/12 03:19:48;;;;;;;3.75;3.22;;;;;;;-0.28;70.42;97398.94;6296280;28;20036;-68
2023/10/12 03:22:59;;;;;;;5.32;3.13;;;;;;;-0.15;69.88;97403.06;6296602;28;20393;-66
2023/10/12 03:26:05;;;;;;;3.70;3.10;;;;;;;-0.09;70.24;97421.06;6296806;28;20059;-67
2023/10/12 03:32:11;;;;;;;4.97;4.05;;;;;;;-0.02;69.52;97390.81;6296227;28;20045;-68
2023/10/12 03:35:23;;;;;;;4.28;3.35;;;;;;;0.26;69.24;97424.91;6295721;28;20515;-67
2023/10/12 03:38:32;;;;;;;4.70;3.75;;;;;;;0.50;68.62;97420.22;6296701;28;20053;-68
2023/10/12 03:45:50;;;;;;;3.90;3.03;;;;;;;0.68;68.93;97430.28;6295458;28;20517;-67
2023/10/12 03:51:44;;;;;;;4.15;3.28;;;;;;;0.90;67.88;97429.00;6257839;28;20079;-67
2023/10/12 03:55:33;;;;;;;3.42;2.65;;;;;;;0.96;67.26;97430.63;6295668;28;20044;-67
2023/10/12 03:58:15;;;;;;;5.57;3.40;;;;;;;0.90;67.62;97436.78;6288861;28;20083;-67
2023/10/12 04:04:34;;;;;;;2.92;2.60;;;;;;;1.07;67.62;97439.06;6295602;28;20063;-67
2023/10/12 04:07:59;;;;;;;3.38;3.08;;;;;;;1.09;67.58;97445.09;6294782;28;20048;-67
2023/10/12 04:20:29;;;;;;;3.17;2.85;;;;;;;1.31;67.45;97450.75;6294685;28;20060;-66
2023/10/12 04:29:42;;;;;;;2.83;2.38;;;;;;;1.63;66.67;97463.97;6295242;28;20044;-66
2023/10/12 04:32:57;;;;;;;3.90;2.90;;;;;;;1.79;65.79;97466.22;6276929;28;20048;-67
2023/10/12 04:36:10;;;;;;;3.72;2.88;;;;;;;2.07;64.43;97463.06;6294615;28;20036;-67
2023/10/12 04:42:34;;;;;;;6.53;4.30;;;;;;;2.09;64.65;97466.44;6295191;28;20513;-67
2023/10/12 04:49:38;;;;;;;3.70;3.40;;;;;;;2.63;63.05;97463.50;6294836;28;20507;-67
2023/10/12 04:52:33;;;;;;;3.40;2.67;;;;;;;2.85;62.87;97465.56;6294702;28;20518;-67
2023/10/12 04:55:35;;;;;;;4.75;3.40;;;;;;;2.98;61.91;97464.38;6295022;28;20039;-69
2023/10/12 04:58:56;;;;;;;3.38;2.70;;;;;;;3.16;61.27;97460.44;6294765;28;20492;-67
2023/10/12 05:08:27;;;;;;;2.78;2.15;;;;;;;3.60;58.44;97446.25;6294545;28;20537;-67
2023/10/12 05:11:33;;;;;;;2.20;2.00;;;;;;;3.57;58.64;97443.75;6293332;28;20055;-67
2023/10/12 05:14:34;;;;;;;4.97;3.35;;;;;;;3.75;57.88;97454.53;6293906;28;20550;-67
2023/10/12 05:17:35;;;;;;;2.30;2.10;;;;;;;3.82;57.21;97446.50;6293529;28;20051;-67
2023/10/12 05:20:41;;;;;;;1.85;1.67;;;;;;;4.23;56.52;97456.59;6294357;28;20040;-67
2023/10/12 05:23:42;;;;;;;4.10;2.40;;;;;;;6.83;52.92;97443.06;6293917;28;20523;-67
2023/10/12 05:26:52;;;;;;;2.00;1.75;;;;;;;11.09;44.75;97450.19;6294173;28;20645;-67
2023/10/12 05:29:59;;;;;;;1.40;1.30;;;;;;;14.63;37.53;97477.59;6293872;28;20547;-67
2023/10/12 05:33:05;;;;;;;1.55;1.45;;;;;;;17.44;32.04;97478.03;6294225;28;20036;-67
2023/10/12 05:36:09;;;;;;;1.85;1.23;;;;;;;18.79;28.41;97479.81;6293060;28;20067;-66
2023/10/12 05:39:13;;;;;;;2.97;1.00;;;;;;;19.57;28.01;97485.28;6294179;28;20043;-67
2023/10/12 05:42:15;;;;;;;1.15;1.05;;;;;;;20.24;26.56;97490.69;6293373;28;20507;-67
2023/10/12 05:45:22;;;;;;;1.50;1.00;;;;;;;20.75;26.17;97511.66;6294037;28;20036;-66
2023/10/12 05:48:27;;;;;;;1.10;0.88;;;;;;;21.35;25.17;97503.13;6293569;28;20049;-67
2023/10/12 05:51:30;;;;;;;1.63;0.80;;;;;;;21.43;23.73;97497.91;6293523;28;20048;-67
2023/10/12 05:54:41;;;;;;;0.82;0.82;;;;;;;21.93;23.08;97491.13;6294048;28;20051;-68
2023/10/12 05:57:51;;;;;;;0.80;0.73;;;;;;;22.32;22.43;97472.84;6293848;28;20040;-67
2023/10/12 06:00:56;;;;;;;1.55;0.95;;;;;;;23.66;21.59;97481.00;6294414;28;20052;-67
2023/10/12 06:04:06;;;;;;;1.60;0.52;;;;;;;24.31;19.27;97460.50;6293225;28;20052;-66
2023/10/12 06:07:11;;;;;;;0.75;0.60;;;;;;;25.09;19.88;97471.34;6293285;28;20447;-66
2023/10/12 06:10:12;;;;;;;1.33;0.38;;;;;;;25.91;18.27;97465.44;6293623;28;20041;-66
2023/10/12 06:13:16;;;;;;;0.47;0.30;;;;;;;26.95;17.60;97467.38;6293790;28;20040;-67
2023/10/12 06:16:20;;;;;;;0.35;0.30;;;;;;;27.85;16.88;97458.03;6293713;28;20499;-67
2023/10/12 06:19:29;;;;;;;1.65;0.55;;;;;;;28.79;16.09;97465.78;6293664;28;20040;-67
2023/10/12 06:22:33;;;;;;;1.42;0.43;;;;;;;29.18;15.61;97462.44;6293611;28;20128;-67
2023/10/12 06:25:38;;;;;;;0.38;0.20;;;;;;;29.45;14.96;97476.91;6292844;28;20052;-67
2023/10/12 06:28:41;;;;;;;0.50;0.32;;;;;;;30.17;14.85;97466.38;6292188;28;20064;-67
2023/10/12 06:31:49;;;;;;;0.38;0.30;;;;;;;30.99;13.81;97478.59;6295195;28;20048;-67
2023/10/12 06:38:23;;;;;;;0.30;0.30;;;;;;;29.19;14.81;97460.59;6298190;28;20040;-66
2023/10/12 06:44:34;;;;;;;0.63;0.52;;;;;;;31.02;13.50;97459.13;6297360;28;20254;-67
2023/10/12 06:47:41;;;;;;;0.68;0.30;;;;;;;30.49;13.42;97477.44;6297096;28;20051;-68
2023/10/12 06:50:48;;;;;;;0.50;0.38;;;;;;;30.47;13.49;97468.69;6297921;28;20143;-67
2023/10/12 06:53:53;;;;;;;0.68;0.30;;;;;;;29.36;14.35;97461.88;6296288;28;20056;-66
2023/10/12 06:57:12;;;;;;;0.20;0.20;;;;;;;29.80;13.19;97457.81;6296840;28;20044;-67
2023/10/12 07:00:33;;;;;;;0.40;0.30;;;;;;;29.17;13.97;97457.25;6297385;28;20422;-66
2023/10/12 07:03:35;;;;;;;1.40;0.30;;;;;;;28.81;14.59;97452.88;6297404;28;20515;-67
2023/10/12 07:06:39;;;;;;;0.38;0.30;;;;;;;29.78;13.25;97476.19;6296677;28;20094;-67
2023/10/12 07:09:48;;;;;;;0.80;0.40;;;;;;;29.17;13.75;97468.06;6296857;28;20048;-67
2023/10/12 07:12:52;;;;;;;0.35;0.20;;;;;;;28.70;13.94;97458.88;6296753;28;20045;-66
2023/10/12 07:15:57;;;;;;;0.63;0.30;;;;;;;29.71;13.31;97470.75;6296999;28;20040;-67
2023/10/12 07:18:59;;;;;;;1.67;0.30;;;;;;;30.60;12.99;97465.94;6296082;28;20052;-68
2023/10/12 07:22:01;;;;;;;0.43;0.28;;;;;;;30.64;12.20;97459.03;6296171;28;20052;-67
2023/10/12 07:25:04;;;;;;;0.82;0.30;;;;;;;30.24;12.48;97469.97;6296296;28;20063;-67
2023/10/12 07:28:10;;;;;;;0.43;0.28;;;;;;;29.45;12.87;97481.50;6296974;28;20174;-67
2023/10/12 07:34:19;;;;;;;1.23;0.30;;;;;;;24.87;15.62;97451.41;6295981;28;20051;-67
2023/10/12 07:37:21;;;;;;;0.47;0.35;;;;;;;24.40;16.04;97454.09;6296640;28;20043;-67
2023/10/12 07:40:23;;;;;;;0.38;0.20;;;;;;;25.80;15.41;97446.97;6296068;28;20044;-67
2023/10/12 07:43:24;;;;;;;0.40;0.30;;;;;;;27.17;14.61;97446.69;6296137;28;20036;-66
2023/10/12 07:46:35;;;;;;;0.63;0.45;;;;;;;26.23;15.17;97447.28;6296521;28;20492;-67
2023/10/12 07:49:40;;;;;;;0.30;0.30;;;;;;;25.14;15.96;97445.72;6296138;28;20052;-66
2023/10/12 07:55:50;;;;;;;0.75;0.40;;;;;;;28.30;13.98;97440.47;6295327;28;20427;-67
2023/10/12 07:58:57;;;;;;;0.43;0.28;;;;;;;28.45;13.86;97447.69;6296387;28;20045;-66
2023/10/12 08:02:08;;;;;;;1.67;0.73;;;;;;;28.78;13.64;97464.13;6296297;28;20519;-67
2023/10/12 08:05:24;;;;;;;1.95;0.60;;;;;;;29.30;13.50;97457.28;6296177;28;20044;-66
2023/10/12 08:08:33;;;;;;;1.38;0.50;;;;;;;28.37;13.87;97456.78;6294246;28;20125;-66
2023/10/12 08:11:40;;;;;;;0.70;0.55;;;;;;;25.51;15.33;97445.03;6295912;28;20044;-67
2023/10/12 08:14:46;;;;;;;0.63;0.47;;;;;;;24.09;16.83;97432.47;6295833;28;20055;-66
2023/10/12 08:18:08;;;;;;;1.00;0.60;;;;;;;25.93;15.96;97439.16;6295779;28;20500;-67
2023/10/12 08:21:37;;;;;;;0.40;0.40;;;;;;;28.10;14.17;97448.44;6295666;28;20419;-67
2023/10/12 08:24:39;;;;;;;1.38;0.40;;;;;;;30.27;12.69;97441.56;6295471;28;20416;-66
2023/10/12 08:27:52;;;;;;;0.50;0.33;;;;;;;31.77;12.01;97453.94;6295247;28;20040;-66
2023/10/12 08:31:00;;;;;;;0.80;0.68;;;;;;;32.39;12.14;97462.25;6295100;28;20475;-66
2023/10/12 08:34:13;;;;;;;0.40;0.40;;;;;;;31.15;12.32;97439.22;6277006;28;20307;-67
2023/10/12 08:37:18;;;;;;;0.95;0.50;;;;;;;30.84;12.68;97438.09;6294667;28;20055;-67
2023/10/12 08:40:21;;;;;;;0.43;0.30;;;;;;;31.20;12.25;97442.13;6294659;28;20049;-67
2023/10/12 08:43:44;;;;;;;0.30;0.30;;;;;;;29.17;13.05;97435.56;6294866;28;20098;-65
2023/10/12 08:46:59;;;;;;;0.63;0.40;;;;;;;27.71;14.21;97428.16;6293969;28;20131;-66
2023/10/12 08:50:05;;;;;;;0.85;0.40;;;;;;;28.51;14.05;97426.06;6294608;28;20427;-67
2023/10/12 08:53:18;;;;;;;0.40;0.40;;;;;;;30.09;13.29;97445.72;6293176;28;20142;-67
2023/10/12 08:56:21;;;;;;;0.82;0.65;;;;;;;29.99;12.75;97440.72;6294457;28;20463;-67
2023/10/12 08:59:25;;;;;;;;;;;;;;;30.26;13.07;97435.28;6276670;28;20427;-67
2023/10/12 09:02:37;;;;;;;1.00;0.75;;;;;;;29.04;13.42;97431.75;6294718;28;20346;-68
2023/10/12 09:05:41;;;;;;;5.85;2.17;;;;;;;28.62;13.46;97425.50;6293884;28;20071;-67
2023/10/12 09:08:46;;;;;;;4.43;2.10;;;;;;;26.99;14.46;97425.50;6293980;28;20434;-68
2023/10/12 09:11:47;;;;;;;2.50;1.50;;;;;;;24.43;16.13;97416.13;6293592;28;20066;-67
2023/10/12 09:14:54;;;;;;;1.33;0.77;;;;;;;23.06;17.43;97411.47;6293759;28;20049;-67
2023/10/12 09:17:57;;;;;;;1.15;0.70;;;;;;;24.03;16.97;97425.94;6294072;28;20075;-66
2023/10/12 09:21:18;;;;;;;2.85;0.85;;;;;;;25.14;16.26;97414.31;6294561;28;20045;-67
2023/10/12 09:27:26;;;;;;;0.60;0.60;;;;;;;25.26;15.80;97438.97;6294137;28;20041;-67
2023/10/12 09:30:35;;;;;;;0.93;0.60;;;;;;;24.75;15.95;97419.69;6293830;28;20045;-67
2023/10/12 09:36:59;;;;;;;0.65;0.40;;;;;;;23.23;17.22;97407.78;6252292;28;20567;-67
2023/10/12 09:40:21;;;;;;;2.72;0.88;;;;;;;22.67;18.16;97406.63;6294002;28;20044;-67
2023/10/12 09:43:26;;;;;;;0.70;0.60;;;;;;;21.64;18.71;97421.75;6293597;28;20045;-66
2023/10/12 09:46:47;;;;;;;0.88;0.60;;;;;;;22.22;18.16;97415.81;6293494;28;20131;-67
2023/10/12 09:49:58;;;;;;;1.48;0.88;;;;;;;20.40;19.64;97416.06;6293809;28;20059;-67
2023/10/12 09:53:21;;;;;;;0.90;0.77;;;;;;;20.41;19.83;97393.72;6293640;28;20369;-67
2023/10/12 09:56:28;;;;;;;1.05;0.90;;;;;;;21.26;19.16;97394.31;6293927;28;20569;-66
2023/10/12 09:59:31;;;;;;;0.95;0.82;;;;;;;22.32;18.41;97389.72;6293809;28;20047;-67
2023/10/12 10:02:42;;;;;;;2.40;1.02;;;;;;;22.63;18.22;97394.53;6293796;28;20044;-67
2023/10/12 10:05:54;;;;;;;1.98;1.55;;;;;;;22.58;18.00;97402.22;6297065;28;20040;-67
2023/10/12 10:09:37;;;;;;;0.90;0.70;;;;;;;22.35;18.17;97397.44;6298739;28;20033;-66
2023/10/12 10:12:22;;;;;;;1.33;0.75;;;;;;;22.36;17.74;97383.06;6297994;28;20454;-66
2023/10/12 10:15:36;;;;;;;1.52;0.90;;;;;;;22.18;18.40;97387.66;6298660;28;20044;-67
2023/10/12 10:19:14;;;;;;;2.45;0.95;;;;;;;22.99;17.97;97394.34;6298693;28;20418;-67
2023/10/12 10:22:18;;;;;;;0.98;0.50;;;;;;;23.91;17.25;97395.06;6297210;28;20058;-66
2023/10/12 10:25:24;;;;;;;1.00;0.90;;;;;;;23.98;17.11;97385.31;6298475;28;20049;-67
2023/10/12 10:28:27;;;;;;;0.70;0.50;;;;;;;23.84;17.29;97394.06;6297227;28;20522;-66
2023/10/12 10:31:46;;;;;;;1.15;0.90;;;;;;;22.56;18.08;97406.91;6298160;28;20048;-67
2023/10/12 10:34:47;;;;;;;1.33;0.65;;;;;;;21.26;19.00;97394.31;6298321;28;20243;-66
2023/10/12 10:37:58;;;;;;;0.77;0.77;;;;;;;20.69;19.23;97375.00;6297549;28;20048;-67
2023/10/12 10:41:23;;;;;;;0.90;0.80;;;;;;;20.77;19.40;97373.25;6298059;28;20136;-67
2023/10/12 10:44:36;;;;;;;2.47;1.63;;;;;;;20.29;19.93;97363.66;6297981;28;20052;-67
2023/10/12 10:47:49;;;;;;;4.30;1.42;;;;;;;20.31;19.79;97355.50;6297680;28;20040;-68
2023/10/12 10:50:54;;;;;;;3.17;1.50;;;;;;;19.83;20.26;97351.22;6297297;28;20059;-66
2023/10/12 10:54:03;;;;;;;1.33;0.80;;;;;;;19.35;20.93;97344.13;6297226;28;20424;-67
2023/10/12 10:57:16;;;;;;;1.13;0.90;;;;;;;19.69;20.68;97340.00;6297115;28;20048;-67
2023/10/12 11:00:18;;;;;;;0.80;0.70;;;;;;;19.58;20.49;97342.81;6297533;28;20245;-66
2023/10/12 11:03:23;;;;;;;1.10;0.70;;;;;;;19.28;20.48;97336.69;6297030;28;20048;-67
2023/10/12 11:06:28;;;;;;;1.10;0.73;;;;;;;19.46;20.53;97330.63;6296311;28;20507;-67
2023/10/12 11:10:19;;;;;;;3.22;1.13;;;;;;;19.72;20.50;97339.69;6296575;28;20056;-67
2023/10/12 11:13:17;;;;;;;0.80;0.80;;;;;;;19.77;20.21;97341.94;6287675;28;20049;-66
2023/10/12 11:19:33;;;;;;;0.98;0.88;;;;;;;19.56;20.69;97344.78;6295771;28;20405;-66
2023/10/12 11:22:37;;;;;;;1.30;0.73;;;;;;;19.79;20.23;97339.97;6297163;28;20040;-67
2023/10/12 11:25:43;;;;;;;0.98;0.70;;;;;;;19.39;20.80;97335.69;6296727;28;20040;-67
2023/10/12 11:28:48;;;;;;;1.63;0.60;;;;;;;18.33;21.90;97318.66;6296811;28;20039;-68
2023/10/12 11:32:08;;;;;;;1.38;1.00;;;;;;;18.19;22.32;97303.06;6296071;28;20052;-67
2023/10/12 11:35:13;;;;;;;1.77;1.10;;;;;;;18.37;21.92;97300.56;6295985;28;20250;-67
2023/10/12 11:38:20;;;;;;;1.60;0.98;;;;;;;17.61;22.78;97316.13;6296231;28;20036;-68
2023/10/12 11:41:27;;;;;;;1.48;1.08;;;;;;;17.11;23.22;97314.16;6296537;28;20055;-67
2023/10/12 11:44:42;;;;;;;2.20;1.40;;;;;;;17.10;23.43;97300.97;6295425;28;20052;-67
2023/10/12 11:47:46;;;;;;;1.63;1.00;;;;;;;16.87;23.64;97300.25;6296612;28;20460;-67
2023/10/12 11:50:53;;;;;;;;;;;;;;;16.94;23.81;97296.13;6296421;28;20044;-67
2023/10/12 11:53:54;;;;;;;1.80;1.13;;;;;;;16.67;24.04;97293.91;6270851;28;19920;-67
2023/10/12 11:56:58;;;;;;;1.55;1.02;;;;;;;15.12;25.45;97283.19;6269659;28;20139;-67
2023/10/12 12:00:20;;;;;;;0.98;0.93;;;;;;;13.09;28.11;97280.25;6271219;28;20060;-67
2023/10/12 12:03:39;;;;;;;1.33;1.00;;;;;;;11.75;30.01;97281.06;6270125;28;20479;-66
2023/10/12 12:06:45;;;;;;;1.35;1.10;;;;;;;11.54;30.57;97277.97;6271083;28;20386;-67
2023/10/12 12:09:52;;;;;;;0.85;0.60;;;;;;;11.13;30.99;97275.28;6269706;28;20044;-68
2023/10/12 12:12:57;;;;;;;1.13;0.98;;;;;;;10.00;32.87;97264.28;6271144;28;20051;-67
2023/10/12 12:16:08;;;;;;;0.88;0.82;;;;;;;9.48;33.92;97261.91;6270971;28;20041;-68
2023/10/12 12:19:18;;;;;;;1.60;1.00;;;;;;;8.82;34.57;97253.09;6269698;28;20044;-67
2023/10/12 12:22:23;;;;;;;0.90;0.80;;;;;;;8.52;35.51;97256.41;6270800;28;20045;-68
2023/10/12 12:25:31;;;;;;;1.13;0.93;;;;;;;8.13;36.70;97253.09;6269822;28;20048;-68
2023/10/12 12:28:44;;;;;;;2.08;1.20;;;;;;;7.74;37.40;97247.06;6252978;28;20458;-68
2023/10/12 12:31:49;;;;;;;1.27;1.00;;;;;;;7.43;38.10;97247.66;6270371;28;20048;-68
2023/10/12 12:34:55;;;;;;;1.45;1.05;;;;;;;7.19;38.77;97228.72;6270526;28;20037;-67
2023/10/12 12:38:05;;;;;;;;;;;;;;;6.85;39.48;97231.97;6270347;28;20060;-67
2023/10/12 12:41:06;;;;;;;1.55;1.35;;;;;;;6.68;39.87;97238.81;6269833;28;20383;-67
2023/10/12 12:44:11;;;;;;;1.55;1.45;;;;;;;6.46;40.61;97238.03;6270202;28;20041;-68
2023/10/12 12:47:23;;;;;;;1.55;1.45;;;;;;;6.35;41.33;97238.47;6270220;28;20493;-68
2023/10/12 12:50:28;;;;;;;2.70;1.80;;;;;;;6.11;41.30;97237.72;6269351;28;20056;-67
2023/10/12 12:53:33;;;;;;;4.20;2.03;;;;;;;6.16;41.66;97234.94;6290515;28;20071;-67
2023/10/12 12:56:37;;;;;;;4.95;2.92;;;;;;;5.98;41.77;97223.47;6294171;28;20051;-67
2023/10/12 12:59:40;;;;;;;2.22;1.75;;;;;;;6.12;42.06;97231.59;6294221;28;20049;-67
2023/10/12 13:02:42;;;;;;;2.38;1.42;;;;;;;6.03;42.42;97234.59;6294021;28;20141;-66
2023/10/12 13:05:47;;;;;;;1.95;1.40;;;;;;;5.87;42.98;97233.47;6294850;28;20050;-67
2023/10/12 13:08:50;;;;;;;1.30;1.20;;;;;;;5.90;42.92;97235.97;6294132;28;20048;-67
2023/10/12 13:11:52;;;;;;;1.77;1.50;;;;;;;5.85;43.13;97233.53;6293731;28;20526;-66
2023/10/12 13:14:59;;;;;;;6.72;3.63;;;;;;;5.75;43.46;97243.50;6294282;28;20052;-67
2023/10/12 13:18:08;;;;;;;3.90;1.50;;;;;;;5.84;43.60;97245.75;6294337;28;20060;-68
2023/10/12 13:21:14;;;;;;;3.47;1.83;;;;;;;5.97;43.94;97247.88;6293775;28;20052;-67
2023/10/12 13:24:16;;;;;;;5.25;1.60;;;;;;;5.66;44.26;97228.19;6293329;28;20090;-68
2023/10/12 13:27:21;;;;;;;3.13;1.75;;;;;;;5.56;44.66;97234.69;6294411;28;20043;-66
2023/10/12 13:30:22;;;;;;;3.97;2.38;;;;;;;5.44;44.91;97241.25;6275641;28;20052;-66
2023/10/12 13:33:28;;;;;;;3.08;1.77;;;;;;;5.52;44.93;97241.81;6294178;28;20507;-67
2023/10/12 13:36:31;;;;;;;5.78;2.55;;;;;;;5.35;45.40;97247.66;6294090;28;20048;-68
2023/10/12 13:39:38;;;;;;;3.28;1.50;;;;;;;5.23;45.96;97236.84;6276035;28;20048;-68
2023/10/12 13:42:40;;;;;;;0.70;0.70;;;;;;;5.43;45.97;97239.53;6292787;28;20404;-69
2023/10/12 13:45:47;;;;;;;1.42;1.00;;;;;;;5.50;45.79;97245.38;6293425;28;20139;-68
2023/10/12 13:48:55;;;;;;;1.88;1.10;;;;;;;5.32;46.12;97241.69;6293954;28;20044;-67
2023/10/12 13:51:59;;;;;;;0.98;0.90;;;;;;;5.30;46.13;97244.38;6293590;28;20052;-67
2023/10/12 13:55:03;;;;;;;1.00;0.90;;;;;;;4.87;46.82;97242.50;6293772;28;20423;-67
2023/10/12 13:58:10;;;;;;;1.25;1.15;;;;;;;4.87;47.04;97251.19;6275075;28;20543;-67
2023/10/12 14:01:20;;;;;;;1.63;1.10;;;;;;;4.71;47.54;97250.88;6275516;28;20380;-67
2023/10/12 14:04:28;;;;;;;2.22;1.20;;;;;;;4.72;47.89;97246.50;6275882;28;20208;-68
2023/10/12 14:07:29;;;;;;;1.40;1.27;;;;;;;4.68;48.02;97239.72;6293639;28;20032;-67
2023/10/12 14:10:37;;;;;;;1.38;1.10;;;;;;;4.70;48.02;97243.13;6293596;28;20067;-67
2023/10/12 14:13:42;;;;;;;1.88;1.38;;;;;;;4.35;48.62;97247.78;6293389;28;20051;-68
2023/10/12 14:16:45;;;;;;;3.72;2.13;;;;;;;4.25;49.01;97230.78;6293609;28;20048;-69
2023/10/12 14:19:50;;;;;;;5.72;2.80;;;;;;;4.13;49.55;97228.56;6292529;28;20044;-67
2023/10/12 14:22:57;;;;;;;4.40;2.78;;;;;;;4.05;49.78;97226.25;6293209;28;20072;-68
2023/10/12 14:26:01;;;;;;;5.25;2.50;;;;;;;4.09;49.88;97224.38;6292897;28;20138;-67
2023/10/12 14:29:08;;;;;;;1.75;1.60;;;;;;;4.17;50.04;97238.00;6293598;28;20044;-68
2023/10/12 14:32:13;;;;;;;2.83;1.50;;;;;;;4.16;50.36;97236.28;6293260;28;20420;-68
2023/10/12 14:35:18;;;;;;;1.60;1.47;;;;;;;4.11;50.35;97238.22;6292059;28;20095;-68
2023/10/12 14:38:24;;;;;;;1.05;1.00;;;;;;;4.06;50.40;97235.75;6292378;28;20554;-68
2023/10/12 14:41:35;;;;;;;1.40;1.30;;;;;;;4.03;50.54;97247.13;6275758;28;20125;-66
2023/10/12 14:44:43;;;;;;;1.70;1.38;;;;;;;4.05;50.70;97240.09;6293336;28;20419;-67
2023/10/12 14:47:47;;;;;;;2.45;1.20;;;;;;;3.90;50.98;97239.75;6292278;28;20063;-68
2023/10/12 14:51:09;;;;;;;2.30;2.00;;;;;;;4.02;50.80;97239.38;6292766;28;20049;-67
2023/10/12 14:54:14;;;;;;;1.67;1.58;;;;;;;3.98;51.00;97237.75;6297796;28;20423;-67
2023/10/12 14:57:17;;;;;;;2.53;1.63;;;;;;;4.17;50.76;97232.78;6296671;28;20567;-67
2023/10/12 15:00:22;;;;;;;1.50;1.40;;;;;;;4.21;50.79;97231.78;6297167;28;20048;-68
2023/10/12 15:03:34;;;;;;;1.80;1.70;;;;;;;4.15;50.84;97230.22;6297729;28;20044;-67
2023/10/12 15:06:35;;;;;;;3.83;1.40;;;;;;;4.30;50.77;97234.06;6297431;28;20048;-67
2023/10/12 15:09:48;;;;;;;1.73;1.45;;;;;;;4.34;50.65;97234.81;6297318;28;20037;-67
2023/10/12 15:12:56;;;;;;;1.95;1.42;;;;;;;4.29;50.77;97227.16;6296671;28;20048;-68
2023/10/12 15:16:09;;;;;;;2.25;1.67;;;;;;;4.31;50.64;97214.94;6297432;28;20065;-67
2023/10/12 15:19:16;;;;;;;2.38;1.92;;;;;;;4.05;51.00;97208.84;6297213;28;20048;-67
2023/10/12 15:22:23;;;;;;;2.55;2.25;;;;;;;3.97;51.37;97203.06;6279771;28;20495;-67
2023/10/12 15:25:26;;;;;;;2.33;1.73;;;;;;;3.92;51.52;97215.38;6296457;28;20129;-67
2023/10/12 15:28:35;;;;;;;2.25;1.60;;;;;;;3.97;51.07;97200.44;6297169;28;20511;-67
2023/10/12 15:31:42;;;;;;;2.90;1.80;;;;;;;3.95;51.20;97185.78;6279214;28;20044;-68
2023/10/12 15:34:49;;;;;;;2.00;1.55;;;;;;;3.93;51.50;97191.03;6297062;28;20415;-67
2023/10/12 15:37:57;;;;;;;1.70;1.60;;;;;;;3.71;51.87;97187.41;6296730;28;20534;-67
2023/10/12 15:41:00;;;;;;;3.00;1.80;;;;;;;3.57;52.22;97173.13;6295912;28;20048;-68
2023/10/12 15:44:05;;;;;;;2.53;1.35;;;;;;;3.58;52.35;97169.63;6295793;28;20139;-68
2023/10/12 15:47:10;;;;;;;1.85;1.25;;;;;;;3.53;52.73;97179.31;6296635;28;20122;-68
2023/10/12 15:50:14;;;;;;;2.63;1.98;;;;;;;3.64;52.66;97183.34;6296428;28;20519;-68
2023/10/12 15:53:21;;;;;;;2.17;1.67;;;;;;;3.63;52.86;97173.84;6296128;28;20526;-67
2023/10/12 15:56:28;;;;;;;1.60;0.98;;;;;;;3.73;52.62;97170.00;6295923;28;20419;-68
2023/10/12 15:59:36;;;;;;;0.88;0.70;;;;;;;3.64;52.92;97165.97;6296409;28;20040;-67
2023/10/12 16:02:41;;;;;;;1.30;1.20;;;;;;;3.57;53.22;97180.94;6277923;28;20163;-68